Monday, February 18, 2019, 11:10 AM GMT
Back to Local

CYSC, Sherbrooke, Que.

Location: , , Canada Lat: 45.4
Local Time: 11:10 AM GMT (11:10 GMT) Lon: -71.883
Time Zone: GMT Elev: 557 ft

Show me the last for .
Show Decoded

2019-02-18 10:00 METAR CYSC 181000Z AUTO 06006KT 9SM OVC100 M18/M20 A2995 RMK SLP164 =
2019-02-18 09:00 METAR CYSC 180900Z AUTO 05006KT 9SM OVC100 M17/M20 A2995 RMK SLP164 =
2019-02-18 08:00 METAR CYSC 180800Z AUTO 05006KT 9SM OVC110 M17/M20 A2997 RMK SLP171 =
2019-02-18 07:00 METAR CYSC 180700Z AUTO 06007KT 9SM BKN130 BKN250 M18/M20 A2998 RMK SLP175 =
2019-02-18 06:00 METAR CYSC 180600Z AUTO 08004KT 9SM FEW250 M17/M20 A3001 RMK SLP185 =
2019-02-18 05:00 METAR CYSC 180500Z AUTO 11004KT 9SM CLR M16/M19 A3004 RMK SLP193 =
2019-02-18 04:00 METAR CYSC 180400Z AUTO 08003KT 9SM CLR M18/M20 A3003 RMK SLP191 =
2019-02-18 03:00 METAR CYSC 180300Z AUTO 08004KT 9SM CLR M16/M19 A3004 RMK SLP193 =
2019-02-18 02:00 METAR CYSC 180200Z AUTO 00000KT 9SM FEW150 M16/M18 A3006 RMK SLP201 =
2019-02-18 01:00 METAR CYSC 180100Z AUTO 05004KT 9SM CLR M14/M19 A3004 RMK SLP194 =
2019-02-18 00:00 METAR CYSC 180000Z AUTO 00000KT 9SM CLR M14/M16 A3005 RMK SLP199 =
2019-02-17 23:00 METAR CYSC 172300Z AUTO 01003KT 9SM CLR M11/M16 A3007 RMK SLP204 =
2019-02-17 22:00 METAR CYSC 172200Z AUTO 32004KT 9SM FEW250 M10/M18 A3007 RMK SLP204 =
2019-02-17 21:00 METAR CYSC 172100Z AUTO 27006KT 9SM CLR M10/M17 A3009 RMK SLP209 =
2019-02-17 20:00 METAR CYSC 172000Z AUTO 27005KT 240V330 9SM FEW250 M09/M18 A3007 RMK SLP202 =
2019-02-17 19:00 METAR CYSC 171900Z AUTO 27007KT 9SM FEW250 M10/M19 A3008 RMK SLP207 =
2019-02-17 18:00 METAR CYSC 171800Z AUTO 25007KT 9SM FEW250 M10/M18 A3011 RMK SLP217 =
2019-02-17 17:00 METAR CYSC 171700Z AUTO 28005KT 210V300 9SM FEW250 M11/M18 A3012 RMK SLP220 =
2019-02-17 16:00 METAR CYSC 171600Z AUTO 27007KT 220V280 9SM CLR M12/M18 A3014 RMK SLP226 =
2019-02-17 15:00 METAR CYSC 171500Z AUTO VRB02KT 9SM FEW250 M13/M19 A3014 RMK SLP228 =
2019-02-17 14:00 METAR CYSC 171400Z AUTO VRB02KT 9SM FEW250 M15/M19 A3016 RMK SLP233 =
2019-02-17 13:00 METAR CYSC 171300Z AUTO 25005KT 9SM FEW250 M15/M19 A3015 RMK SLP232 =
2019-02-17 12:00 METAR CYSC 171200Z AUTO 31004KT 9SM CLR M17/M20 A3011 RMK SLP217 =

Support USWX by starting your Amazon purchase here.